Time;durP1;ratioP1;P1;durP2;ratioP2;P2;SDS_P1;SDS_P2;PMS_P1;PMS_P2;Temp;Humidity;BMP_temperature;BMP_pressure;BME280_temperature;BME280_humidity;BME280_pressure;Samples;Min_cycle;Max_cycle;Signal;HPM_P1;HPM_P2
2021/11/05 00:02:06;;;;;;;11.43;2.97;;;;;;;;;;4423343;32;20114;-75
2021/11/05 00:04:32;;;;;;;;;;;;;;;;;;4423382;32;20046;-75
2021/11/05 00:06:59;;;;;;;5.37;1.80;;;;;;;;;;4423265;32;19940;-75
2021/11/05 00:09:55;;;;;;;;;;;;;;;;;;;;;
2021/11/05 00:15:55;;;;;;;7.05;1.50;;;;;;;;;;4346373;33;20082;-75
2021/11/05 00:18:29;;;;;;;10.05;2.37;;;;;;;;;;4344960;33;20036;-75
2021/11/05 00:21:05;;;;;;;4.80;1.95;;;;;;;;;;4414521;32;20034;-73
2021/11/05 00:23:51;;;;;;;7.32;2.08;;;;;;;;;;4419789;32;20029;-74
2021/11/05 00:26:54;;;;;;;7.70;1.70;;;;;;;;;;4423604;32;20062;-74
2021/11/05 00:32:16;;;;;;;6.05;1.30;;;;;;;;;;4407132;32;20026;-75
2021/11/05 00:34:44;;;;;;;5.43;1.40;;;;;;;;;;4409364;32;20030;-75
2021/11/05 00:37:19;;;;;;;;;;;;;;;;;;;;;
2021/11/05 00:39:56;;;;;;;10.52;1.62;;;;;;;;;;4420906;32;20087;-74
2021/11/05 00:42:40;;;;;;;5.05;1.48;;;;;;;;;;4422248;32;20022;-73
2021/11/05 00:45:09;;;;;;;13.15;1.67;;;;;;;;;;4421492;32;20097;-74
2021/11/05 00:50:20;;;;;;;4.85;1.20;;;;;;;;;;4386519;32;20026;-73
2021/11/05 00:52:45;;;;;;;;;;;;;;;;;;4422755;32;20075;-74
2021/11/05 00:58:15;;;;;;;7.10;1.33;;;;;;;;;;4422271;32;20056;-74
2021/11/05 01:00:40;;;;;;;4.87;1.70;;;;;;;;;;4409417;32;20087;-73
2021/11/05 01:03:06;;;;;;;;;;;;;;;;;;4422009;32;20073;-73
2021/11/05 01:05:59;;;;;;;9.82;1.90;;;;;;;;;;4421971;32;19947;-74
2021/11/05 01:11:29;;;;;;;7.05;1.73;;;;;;;;;;4406665;32;20113;-73
2021/11/05 01:13:54;;;;;;;8.02;2.12;;;;;;;;;;4407250;32;20052;-74
2021/11/05 01:16:26;;;;;;;;;;;;;;;;;;4406940;32;20026;-74
2021/11/05 01:18:54;;;;;;;5.82;1.73;;;;;;;;;;4407073;32;19993;-74
2021/11/05 01:21:27;;;;;;;4.80;1.70;;;;;;;;;;4407576;32;20030;-73
2021/11/05 01:24:01;;;;;;;12.10;1.85;;;;;;;;;;4407609;32;20035;-74
2021/11/05 01:26:26;;;;;;;12.15;2.22;;;;;;;;;;4406742;32;20070;-73
2021/11/05 01:31:43;;;;;;;13.00;1.73;;;;;;;;;;4407436;32;19960;-74
2021/11/05 01:34:16;;;;;;;9.15;1.77;;;;;;;;;;4406553;32;20077;-74
2021/11/05 01:37:12;;;;;;;9.27;1.50;;;;;;;;;;4406481;32;20095;-74
2021/11/05 01:39:38;;;;;;;7.18;2.37;;;;;;;;;;4391991;32;20112;-73
2021/11/05 01:42:06;;;;;;;;;;;;;;;;;;4406697;32;20031;-74
2021/11/05 01:44:31;;;;;;;11.95;1.70;;;;;;;;;;4407245;32;19992;-74
2021/11/05 01:46:56;;;;;;;;;;;;;;;;;;4407656;32;20029;-74
2021/11/05 01:49:35;;;;;;;13.62;1.80;;;;;;;;;;4406493;32;19953;-73
2021/11/05 01:52:03;;;;;;;8.98;1.58;;;;;;;;;;4393730;32;20104;-74
2021/11/05 01:57:31;;;;;;;3.50;1.33;;;;;;;;;;4406852;32;20080;-74
2021/11/05 02:26:58;;;;;;;7.10;1.30;;;;;;;;;;4371846;32;20080;-74
2021/11/05 02:29:49;;;;;;;12.10;2.08;;;;;;;;;;4366896;32;20055;-75
2021/11/05 02:32:46;;;;;;;;;;;;;;;;;;;;;
2021/11/05 02:35:30;;;;;;;10.63;1.77;;;;;;;;;;4313006;33;20044;-74
2021/11/05 02:40:49;;;;;;;8.60;1.77;;;;;;;;;;4421003;32;20074;-74
2021/11/05 02:46:11;;;;;;;;;;;;;;;;;;;;;
2021/11/05 02:48:43;;;;;;;13.48;2.17;;;;;;;;;;4417304;32;20072;-73
2021/11/05 02:53:55;;;;;;;7.03;2.08;;;;;;;;;;4413224;32;20025;-74
2021/11/05 02:56:20;;;;;;;;;;;;;;;;;;4420581;32;20087;-73
2021/11/05 02:59:05;;;;;;;;;;;;;;;;;;;;;
2021/11/05 03:01:38;;;;;;;8.93;1.83;;;;;;;;;;4421251;32;20061;-74
2021/11/05 03:04:04;;;;;;;10.57;2.33;;;;;;;;;;4419658;32;20046;-73
2021/11/05 03:06:51;;;;;;;6.72;2.50;;;;;;;;;;4419942;32;20421;-73
2021/11/05 03:09:17;;;;;;;13.43;2.78;;;;;;;;;;4419951;32;20073;-74
2021/11/05 03:14:51;;;;;;;9.57;3.17;;;;;;;;;;4394753;32;19949;-73
2021/11/05 03:20:31;;;;;;;13.10;3.53;;;;;;;;;;4364962;32;20038;-74
2021/11/05 03:22:56;;;;;;;14.68;3.65;;;;;;;;;;4372618;32;20466;-73
2021/11/05 03:25:39;;;;;;;;;;;;;;;;;;4370311;32;20054;-74
2021/11/05 03:28:28;;;;;;;21.10;4.93;;;;;;;;;;4371052;32;19997;-73
2021/11/05 03:30:55;;;;;;;16.65;5.55;;;;;;;;;;4357393;33;20054;-73
2021/11/05 03:33:21;;;;;;;10.70;4.32;;;;;;;;;;4358564;32;20500;-73
2021/11/05 03:38:37;;;;;;;14.82;3.72;;;;;;;;;;4358242;33;20334;-74
2021/11/05 03:41:02;;;;;;;10.48;3.72;;;;;;;;;;4358502;32;20036;-73
2021/11/05 03:43:29;;;;;;;;;;;;;;;;;;4382999;32;20054;-73
2021/11/05 03:49:33;;;;;;;;;;;;;;;;;;;;;
2021/11/05 03:55:43;;;;;;;15.45;4.45;;;;;;;;;;4384882;32;20053;-73
2021/11/05 03:58:50;;;;;;;18.35;5.12;;;;;;;;;;4419764;32;20038;-74
2021/11/05 04:13:24;;;;;;;17.98;6.35;;;;;;;;;;4329435;33;20199;-73
2021/11/05 04:16:21;;;;;;;;;;;;;;;;;;;;;
2021/11/05 04:19:12;;;;;;;15.43;5.40;;;;;;;;;;4394522;32;20076;-73
2021/11/05 04:21:40;;;;;;;14.43;4.70;;;;;;;;;;4420142;32;20486;-74
2021/11/05 04:24:06;;;;;;;14.73;4.40;;;;;;;;;;4420569;32;20060;-74
2021/11/05 04:26:51;;;;;;;;;;;;;;;;;;;;;
2021/11/05 04:29:51;;;;;;;14.25;3.92;;;;;;;;;;4419800;32;20069;-74
2021/11/05 04:32:41;;;;;;;20.67;5.65;;;;;;;;;;4413801;32;20034;-74
2021/11/05 04:38:13;;;;;;;13.82;5.22;;;;;;;;;;4423104;32;20064;-73
2021/11/05 04:40:50;;;;;;;20.45;5.35;;;;;;;;;;4422727;32;20030;-73
2021/11/05 04:53:04;;;;;;;15.30;4.68;;;;;;;;;;4341215;33;20120;-74
2021/11/05 04:55:51;;;;;;;11.30;4.00;;;;;;;;;;4349754;33;20043;-74
2021/11/05 04:58:23;;;;;;;;;;;;;;;;;;4406893;32;20066;-73
2021/11/05 05:07:12;;;;;;;17.80;5.20;;;;;;;;;;4421948;32;20052;-73
2021/11/05 05:10:12;;;;;;;16.77;4.68;;;;;;;;;;4421391;32;20432;-74
2021/11/05 05:13:42;;;;;;;14.00;5.40;;;;;;;;;;4422055;32;20572;-75
2021/11/05 05:15:59;;;;;;;17.40;4.95;;;;;;;;;;4385785;32;20037;-75
2021/11/05 05:18:48;;;;;;;;;;;;;;;;;;;;;
2021/11/05 05:21:45;;;;;;;14.02;5.07;;;;;;;;;;4359093;32;20027;-75
2021/11/05 05:27:36;;;;;;;16.85;4.45;;;;;;;;;;4374168;32;20409;-75
2021/11/05 05:36:22;;;;;;;19.08;4.53;;;;;;;;;;4299818;33;20058;-75
2021/11/05 05:38:56;;;;;;;;;;;;;;;;;;4392669;32;20053;-73
2021/11/05 05:41:56;;;;;;;10.55;4.37;;;;;;;;;;4421784;32;19937;-74
2021/11/05 05:47:44;;;;;;;;;;;;;;;;;;;;;
2021/11/05 05:53:47;;;;;;;9.85;4.30;;;;;;;;;;4344193;32;20149;-74
2021/11/05 05:56:36;;;;;;;11.77;3.80;;;;;;;;;;4332558;33;20092;-75
2021/11/05 05:59:04;;;;;;;12.02;3.47;;;;;;;;;;4340645;32;20113;-75
2021/11/05 06:01:39;;;;;;;12.57;4.05;;;;;;;;;;4387800;32;20039;-74
2021/11/05 06:04:05;;;;;;;12.73;4.60;;;;;;;;;;4386546;32;20060;-74
2021/11/05 06:06:30;;;;;;;;;;;;;;;;;;4421761;32;20034;-74
2021/11/05 06:08:56;;;;;;;9.48;2.65;;;;;;;;;;4407450;32;19945;-74
2021/11/05 06:11:21;;;;;;;;;;;;;;;;;;4421450;32;20189;-75
2021/11/05 06:13:55;;;;;;;9.10;3.65;;;;;;;;;;4421585;32;20343;-75
2021/11/05 06:16:20;;;;;;;12.45;3.83;;;;;;;;;;4423131;32;20038;-75
2021/11/05 06:18:51;;;;;;;;;;;;;;;;;;4421457;32;20500;-75
2021/11/05 06:21:17;;;;;;;14.73;5.60;;;;;;;;;;4425342;32;19986;-76
2021/11/05 06:23:42;;;;;;;;;;;;;;;;;;4437509;32;20359;-75
2021/11/05 06:26:27;;;;;;;14.35;4.70;;;;;;;;;;4411689;32;19937;-76
2021/11/05 06:29:20;;;;;;;15.80;6.35;;;;;;;;;;4420915;32;20086;-76
2021/11/05 06:32:27;;;;;;;;;;;;;;;;;;;;;
2021/11/05 06:36:17;;;;;;;16.27;5.97;;;;;;;;;;4344097;32;20047;-75
2021/11/05 06:38:55;;;;;;;16.60;6.00;;;;;;;;;;4284891;33;20068;-75
2021/11/05 06:41:47;;;;;;;14.98;5.95;;;;;;;;;;4272702;33;20087;-75
2021/11/05 06:47:14;;;;;;;17.37;4.55;;;;;;;;;;4226743;34;20019;-76
2021/11/05 06:50:21;;;;;;;14.23;4.60;;;;;;;;;;4302218;33;20028;-75
2021/11/05 06:53:06;;;;;;;11.00;4.00;;;;;;;;;;4329546;33;20047;-75
2021/11/05 06:55:31;;;;;;;10.80;4.25;;;;;;;;;;4335197;33;20050;-75
2021/11/05 06:57:56;;;;;;;;;;;;;;;;;;4343675;33;20087;-75
2021/11/05 07:06:02;;;;;;;15.75;4.37;;;;;;;;;;4403699;32;20026;-75
2021/11/05 07:08:28;;;;;;;;;;;;;;;;;;4420173;32;20051;-74
2021/11/05 07:11:02;;;;;;;9.23;4.07;;;;;;;;;;4419651;32;19941;-75
2021/11/05 07:13:27;;;;;;;13.75;4.50;;;;;;;;;;4420214;32;20081;-75
2021/11/05 07:18:56;;;;;;;14.27;5.65;;;;;;;;;;4408406;32;20259;-74
2021/11/05 07:21:21;;;;;;;16.17;5.62;;;;;;;;;;4405729;32;20030;-74
2021/11/05 07:24:00;;;;;;;;;;;;;;;;;;;;;
2021/11/05 07:26:28;;;;;;;15.75;6.55;;;;;;;;;;4416793;32;19968;-75
2021/11/05 07:29:04;;;;;;;;;;;;;;;;;;;;;
2021/11/05 07:31:30;;;;;;;23.52;7.07;;;;;;;;;;4414370;32;20049;-76
2021/11/05 07:33:55;;;;;;;;;;;;;;;;;;4420270;32;20022;-74
2021/11/05 07:36:20;;;;;;;21.23;5.32;;;;;;;;;;4420337;32;19933;-74
2021/11/05 07:38:58;;;;;;;;;;;;;;;;;;;;;
2021/11/05 07:41:30;;;;;;;16.85;5.15;;;;;;;;;;4420452;32;19971;-75
2021/11/05 07:44:02;;;;;;;20.27;5.62;;;;;;;;;;4419990;32;20496;-75
2021/11/05 07:49:41;;;;;;;14.60;5.97;;;;;;;;;;4361203;32;20065;-75
2021/11/05 07:52:06;;;;;;;;;;;;;;;;;;4406164;32;20030;-75
2021/11/05 07:54:32;;;;;;;17.40;5.47;;;;;;;;;;4420136;32;20302;-72
2021/11/05 07:56:57;;;;;;;;;;;;;;;;;;4420231;32;20371;-75
2021/11/05 07:59:22;;;;;;;11.07;4.97;;;;;;;;;;4420308;32;19938;-75
2021/11/05 08:01:47;;;;;;;;;;;;;;;;;;4421354;32;20018;-75
2021/11/05 08:04:23;;;;;;;13.62;5.55;;;;;;;;;;4436228;32;19941;-76
2021/11/05 08:06:51;;;;;;;10.80;4.53;;;;;;;;;;4436131;32;20076;-75
2021/11/05 08:09:20;;;;;;;12.57;5.28;;;;;;;;;;4435794;32;20514;-75
2021/11/05 08:11:46;;;;;;;15.43;5.45;;;;;;;;;;4424061;32;20018;-74
2021/11/05 08:14:14;;;;;;;16.87;5.78;;;;;;;;;;4438779;32;20025;-75
2021/11/05 08:16:40;;;;;;;24.90;5.18;;;;;;;;;;4439079;32;20038;-76
2021/11/05 08:19:10;;;;;;;;;;;;;;;;;;4425111;32;20014;-76
2021/11/05 08:21:48;;;;;;;14.73;4.85;;;;;;;;;;4439117;32;19959;-76
2021/11/05 08:24:14;;;;;;;16.48;5.47;;;;;;;;;;4438169;32;20101;-76
2021/11/05 08:26:39;;;;;;;;;;;;;;;;;;4431666;32;20044;-75
2021/11/05 08:29:49;;;;;;;13.34;4.02;;;;;;;;;;4423654;32;19939;-77
2021/11/05 08:32:47;;;;;;;14.38;4.30;;;;;;;;;;4402798;32;20052;-75
2021/11/05 08:35:12;;;;;;;22.25;4.18;;;;;;;;;;4423403;32;20371;-72
2021/11/05 08:38:25;;;;;;;;;;;;;;;;;;;;;
2021/11/05 08:43:31;;;;;;;11.00;3.60;;;;;;;;;;4423176;32;20066;-75
2021/11/05 08:46:30;;;;;;;;;;;;;;;;;;;;;
2021/11/05 08:49:18;;;;;;;12.23;3.35;;;;;;;;;;4423314;32;20049;-75
2021/11/05 08:51:46;;;;;;;13.90;3.80;;;;;;;;;;4422896;32;20359;-76
2021/11/05 08:54:19;;;;;;;10.20;3.45;;;;;;;;;;4422525;32;20026;-75
2021/11/05 08:56:44;;;;;;;24.83;4.72;;;;;;;;;;4422912;32;20144;-74
2021/11/05 08:59:12;;;;;;;;;;;;;;;;;;4423744;32;20101;-75
2021/11/05 09:01:37;;;;;;;12.68;4.75;;;;;;;;;;4408680;32;19995;-74
2021/11/05 09:04:10;;;;;;;;;;;;;;;;;;4423061;32;20373;-75
2021/11/05 09:07:00;;;;;;;14.65;5.43;;;;;;;;;;4423178;32;20311;-76
2021/11/05 09:09:26;;;;;;;19.55;5.43;;;;;;;;;;4422334;32;20026;-75
2021/11/05 09:11:53;;;;;;;;;;;;;;;;;;4422541;32;20044;-74
2021/11/05 09:14:30;;;;;;;16.77;5.53;;;;;;;;;;4423220;32;19970;-75
2021/11/05 09:16:55;;;;;;;17.33;5.37;;;;;;;;;;4422374;32;20026;-74
2021/11/05 09:19:20;;;;;;;;;;;;;;;;;;4422319;32;20317;-74
2021/11/05 09:21:46;;;;;;;17.00;5.85;;;;;;;;;;4421393;32;19975;-75
2021/11/05 09:24:17;;;;;;;;;;;;;;;;;;4422444;32;20143;-75
2021/11/05 09:26:42;;;;;;;14.80;5.20;;;;;;;;;;4422384;32;19945;-76
2021/11/05 09:29:18;;;;;;;;;;;;;;;;;;;;;
2021/11/05 09:31:52;;;;;;;14.18;5.57;;;;;;;;;;4407697;32;19941;-76
2021/11/05 09:34:21;;;;;;;12.70;5.50;;;;;;;;;;4407093;32;20034;-75
2021/11/05 09:36:46;;;;;;;14.98;4.97;;;;;;;;;;4407000;32;20363;-76
2021/11/05 09:39:12;;;;;;;;;;;;;;;;;;4408573;32;20026;-75
2021/11/05 09:44:22;;;;;;;15.40;4.50;;;;;;;;;;4422371;32;20301;-75
2021/11/05 09:46:48;;;;;;;16.45;3.67;;;;;;;;;;4421845;32;20163;-76
2021/11/05 09:49:15;;;;;;;;;;;;;;;;;;4421778;32;20030;-75
2021/11/05 09:51:50;;;;;;;13.38;4.10;;;;;;;;;;4421564;32;19947;-73
2021/11/05 09:54:35;;;;;;;10.70;2.53;;;;;;;;;;4422035;32;20040;-74
2021/11/05 09:57:16;;;;;;;12.63;2.83;;;;;;;;;;4422151;32;20092;-75
2021/11/05 09:59:42;;;;;;;8.63;2.92;;;;;;;;;;4421265;32;20044;-75
2021/11/05 10:02:07;;;;;;;;;;;;;;;;;;4422000;32;20026;-75
2021/11/05 10:04:35;;;;;;;9.05;1.80;;;;;;;;;;4421477;32;19933;-75
2021/11/05 10:10:45;;;;;;;4.87;1.83;;;;;;;;;;4300535;33;20109;-75
2021/11/05 10:13:22;;;;;;;7.40;1.40;;;;;;;;;;4257397;33;20052;-75
2021/11/05 10:15:54;;;;;;;6.37;1.40;;;;;;;;;;4268724;33;20098;-76
2021/11/05 10:18:23;;;;;;;7.90;1.48;;;;;;;;;;4329806;33;20046;-75
2021/11/05 10:21:05;;;;;;;6.37;1.95;;;;;;;;;;4358636;32;20026;-75
2021/11/05 10:23:38;;;;;;;9.40;1.55;;;;;;;;;;4406207;32;20060;-75
2021/11/05 10:26:03;;;;;;;7.43;2.58;;;;;;;;;;4406168;32;20407;-76
2021/11/05 10:28:31;;;;;;;;;;;;;;;;;;4405309;32;20014;-75
2021/11/05 10:30:56;;;;;;;5.00;1.15;;;;;;;;;;4406272;32;19956;-74
2021/11/05 10:33:31;;;;;;;;;;;;;;;;;;;;;
2021/11/05 10:36:01;;;;;;;7.97;1.70;;;;;;;;;;4403669;32;19982;-76
2021/11/05 10:41:32;;;;;;;6.87;1.27;;;;;;;;;;4399376;32;20077;-74
2021/11/05 10:43:59;;;;;;;5.12;1.25;;;;;;;;;;4406084;32;20107;-75
2021/11/05 10:46:24;;;;;;;6.55;1.73;;;;;;;;;;4391411;32;20044;-74
2021/11/05 10:48:49;;;;;;;;;;;;;;;;;;4393643;32;20331;-76
2021/11/05 10:51:28;;;;;;;6.03;1.20;;;;;;;;;;4406111;32;19942;-74
2021/11/05 10:54:27;;;;;;;4.93;1.40;;;;;;;;;;4392121;32;20026;-75
2021/11/05 10:57:02;;;;;;;6.10;1.42;;;;;;;;;;4405510;32;20084;-76
2021/11/05 10:59:38;;;;;;;6.20;2.07;;;;;;;;;;4406031;32;20053;-75
2021/11/05 11:02:03;;;;;;;6.87;1.60;;;;;;;;;;4406101;32;20053;-74
2021/11/05 11:04:30;;;;;;;;;;;;;;;;;;4406285;32;20410;-75
2021/11/05 11:06:56;;;;;;;5.87;1.77;;;;;;;;;;4406074;32;19937;-75
2021/11/05 11:09:42;;;;;;;7.75;1.85;;;;;;;;;;4405548;32;20041;-75
2021/11/05 11:12:07;;;;;;;10.02;3.22;;;;;;;;;;4405398;32;20136;-75
2021/11/05 11:14:35;;;;;;;5.12;1.48;;;;;;;;;;4420625;32;20408;-75
2021/11/05 11:17:10;;;;;;;2.67;0.95;;;;;;;;;;4420586;32;20056;-76
2021/11/05 11:19:44;;;;;;;5.65;1.33;;;;;;;;;;4420215;32;20102;-76
2021/11/05 11:22:10;;;;;;;6.57;1.35;;;;;;;;;;4420043;32;20486;-73
2021/11/05 11:24:40;;;;;;;5.93;1.20;;;;;;;;;;4420825;32;20030;-70
2021/11/05 11:27:07;;;;;;;6.72;1.42;;;;;;;;;;4406341;32;20041;-75
2021/11/05 11:29:32;;;;;;;13.45;2.08;;;;;;;;;;4420717;32;20022;-75
2021/11/05 11:31:59;;;;;;;5.10;1.50;;;;;;;;;;4420547;32;20052;-75
2021/11/05 11:34:27;;;;;;;4.20;1.10;;;;;;;;;;4420598;32;20071;-75
2021/11/05 11:36:54;;;;;;;5.85;1.65;;;;;;;;;;4420785;32;20396;-76
2021/11/05 11:39:20;;;;;;;5.80;1.42;;;;;;;;;;4420403;32;20388;-76
2021/11/05 11:41:46;;;;;;;7.43;1.62;;;;;;;;;;4420200;32;20087;-76
2021/11/05 11:44:15;;;;;;;6.78;1.55;;;;;;;;;;4420421;32;20023;-75
2021/11/05 11:46:57;;;;;;;8.90;2.03;;;;;;;;;;4420299;32;20064;-75
2021/11/05 11:49:42;;;;;;;7.05;1.52;;;;;;;;;;4420440;32;20427;-74
2021/11/05 11:52:28;;;;;;;4.15;1.08;;;;;;;;;;4420406;32;20053;-74
2021/11/05 11:54:58;;;;;;;5.85;1.40;;;;;;;;;;4420580;32;20038;-74
2021/11/05 11:57:29;;;;;;;8.73;2.05;;;;;;;;;;4420537;32;20142;-75
2021/11/05 12:00:39;;;;;;;8.55;2.08;;;;;;;;;;4407613;32;20010;-73
2021/11/05 12:03:09;;;;;;;7.25;1.92;;;;;;;;;;4398776;32;20026;-74
2021/11/05 12:05:48;;;;;;;6.95;1.50;;;;;;;;;;4420981;32;20392;-75
2021/11/05 12:08:34;;;;;;;8.30;1.62;;;;;;;;;;4420060;32;20435;-75
2021/11/05 12:11:20;;;;;;;11.00;1.48;;;;;;;;;;4420070;32;20074;-75
2021/11/05 12:13:53;;;;;;;6.97;1.33;;;;;;;;;;4419992;32;20408;-75
2021/11/05 12:16:24;;;;;;;7.30;1.75;;;;;;;;;;4420431;32;20060;-72
2021/11/05 12:19:12;;;;;;;7.10;1.58;;;;;;;;;;4419390;32;20061;-75
2021/11/05 12:21:40;;;;;;;8.85;2.08;;;;;;;;;;4420280;32;20087;-74
2021/11/05 12:27:27;;;;;;;8.00;1.45;;;;;;;;;;4394961;32;20035;-74
2021/11/05 12:29:57;;;;;;;6.10;1.65;;;;;;;;;;4418629;32;20076;-74
2021/11/05 12:32:24;;;;;;;5.07;1.37;;;;;;;;;;4413121;32;20019;-74
2021/11/05 12:35:05;;;;;;;6.35;1.48;;;;;;;;;;4414144;32;20022;-74
2021/11/05 12:37:42;;;;;;;7.03;1.85;;;;;;;;;;4403242;32;20101;-74
2021/11/05 12:40:07;;;;;;;;;;;;;;;;;;4411242;32;20103;-73
2021/11/05 12:42:36;;;;;;;5.33;1.50;;;;;;;;;;4421001;32;20332;-74
2021/11/05 12:45:03;;;;;;;9.15;1.85;;;;;;;;;;4418767;32;20468;-74
2021/11/05 12:47:50;;;;;;;10.40;3.12;;;;;;;;;;4415268;32;20061;-73
2021/11/05 12:50:23;;;;;;;3.97;1.30;;;;;;;;;;4414469;32;20046;-74
2021/11/05 12:52:58;;;;;;;16.27;2.47;;;;;;;;;;4405149;32;20426;-74
2021/11/05 12:55:25;;;;;;;12.52;2.47;;;;;;;;;;4406938;32;20045;-73
2021/11/05 12:58:00;;;;;;;11.07;2.30;;;;;;;;;;4422852;32;20026;-73
2021/11/05 13:00:31;;;;;;;5.00;1.55;;;;;;;;;;4423247;32;20085;-74
2021/11/05 13:02:57;;;;;;;14.60;1.90;;;;;;;;;;4423151;32;20384;-73
2021/11/05 13:05:39;;;;;;;3.55;1.30;;;;;;;;;;4412283;32;20060;-73
2021/11/05 13:08:16;;;;;;;7.70;1.77;;;;;;;;;;4394049;32;20469;-74
2021/11/05 13:10:43;;;;;;;7.00;1.85;;;;;;;;;;4406781;32;20039;-73
2021/11/05 13:13:18;;;;;;;10.93;2.05;;;;;;;;;;4407560;32;20047;-74
2021/11/05 13:15:44;;;;;;;11.68;1.60;;;;;;;;;;4407885;32;20064;-73
2021/11/05 13:18:29;;;;;;;;;;;;;;;;;;;;;
2021/11/05 13:21:13;;;;;;;5.57;1.33;;;;;;;;;;4406606;32;20038;-73
2021/11/05 13:23:39;;;;;;;7.03;1.67;;;;;;;;;;4408047;32;20089;-72
2021/11/05 13:26:04;;;;;;;6.10;1.73;;;;;;;;;;4407478;32;20025;-74
2021/11/05 13:28:32;;;;;;;6.18;1.48;;;;;;;;;;4407050;32;20034;-74
2021/11/05 13:30:59;;;;;;;6.80;1.65;;;;;;;;;;4407175;32;20062;-75
2021/11/05 13:33:25;;;;;;;6.82;1.70;;;;;;;;;;4407001;32;20095;-74
2021/11/05 13:35:55;;;;;;;9.75;1.92;;;;;;;;;;4393182;32;20026;-73
2021/11/05 13:38:25;;;;;;;11.10;1.52;;;;;;;;;;4406824;32;20092;-73
2021/11/05 13:40:52;;;;;;;8.70;1.70;;;;;;;;;;4406731;32;20061;-73
2021/11/05 13:43:18;;;;;;;5.00;1.27;;;;;;;;;;4406761;32;20073;-74
2021/11/05 13:46:00;;;;;;;10.30;1.40;;;;;;;;;;4406993;32;20026;-74
2021/11/05 13:48:45;;;;;;;7.93;1.77;;;;;;;;;;4392773;32;20035;-73
2021/11/05 13:51:40;;;;;;;8.15;1.55;;;;;;;;;;4406733;32;20111;-73
2021/11/05 13:54:06;;;;;;;8.52;1.45;;;;;;;;;;4392697;32;20038;-73
2021/11/05 13:56:51;;;;;;;7.55;1.67;;;;;;;;;;4393254;32;20052;-74
2021/11/05 13:59:34;;;;;;;4.68;2.00;;;;;;;;;;4406459;32;20381;-74
2021/11/05 14:02:11;;;;;;;7.80;1.60;;;;;;;;;;4406099;32;20116;-73
2021/11/05 14:04:40;;;;;;;6.35;2.30;;;;;;;;;;4406973;32;20035;-73
2021/11/05 14:07:12;;;;;;;12.80;2.10;;;;;;;;;;4405906;32;20037;-73
2021/11/05 14:09:37;;;;;;;6.35;1.70;;;;;;;;;;4391563;32;20078;-73
2021/11/05 14:12:03;;;;;;;;;;;;;;;;;;4404573;32;20057;-74
2021/11/05 14:14:35;;;;;;;6.37;1.67;;;;;;;;;;4420620;32;20267;-73
2021/11/05 14:17:12;;;;;;;6.97;1.65;;;;;;;;;;4407494;32;20097;-73
2021/11/05 14:19:37;;;;;;;;;;;;;;;;;;4421810;32;20386;-73
2021/11/05 14:22:04;;;;;;;11.57;1.83;;;;;;;;;;4421584;32;19984;-73
2021/11/05 14:24:34;;;;;;;8.63;2.60;;;;;;;;;;4421088;32;20034;-73
2021/11/05 14:27:05;;;;;;;5.95;2.37;;;;;;;;;;4421206;32;20416;-73
2021/11/05 14:29:34;;;;;;;14.18;2.03;;;;;;;;;;4421321;32;20061;-73
2021/11/05 14:32:03;;;;;;;9.38;2.05;;;;;;;;;;4408445;32;20091;-73
2021/11/05 14:34:29;;;;;;;13.45;2.00;;;;;;;;;;4421255;32;20077;-73
2021/11/05 14:37:21;;;;;;;16.02;2.58;;;;;;;;;;4421164;32;20442;-73
2021/11/05 14:39:48;;;;;;;9.18;1.42;;;;;;;;;;4417358;32;20033;-73
2021/11/05 14:42:36;;;;;;;13.15;1.85;;;;;;;;;;4407265;32;20060;-74
2021/11/05 14:45:22;;;;;;;12.70;1.98;;;;;;;;;;4421817;32;20060;-73
2021/11/05 14:48:16;;;;;;;17.55;3.25;;;;;;;;;;4420635;32;20449;-74
2021/11/05 14:51:02;;;;;;;19.77;2.40;;;;;;;;;;4420391;32;20038;-75
2021/11/05 14:53:29;;;;;;;9.48;2.22;;;;;;;;;;4405350;32;20089;-73
2021/11/05 14:55:54;;;;;;;6.35;1.90;;;;;;;;;;4420592;32;20042;-73
2021/11/05 14:58:19;;;;;;;;;;;;;;;;;;4421115;32;20068;-72
2021/11/05 15:00:49;;;;;;;9.38;2.12;;;;;;;;;;4406569;32;19941;-73
2021/11/05 15:03:21;;;;;;;11.23;1.62;;;;;;;;;;4406544;32;20034;-73
2021/11/05 15:05:47;;;;;;;16.08;2.62;;;;;;;;;;4421646;32;20387;-73
2021/11/05 15:08:13;;;;;;;10.23;1.77;;;;;;;;;;4420855;32;20038;-73
2021/11/05 15:10:38;;;;;;;;;;;;;;;;;;4420912;32;20034;-72
2021/11/05 15:13:04;;;;;;;10.27;2.10;;;;;;;;;;4420377;32;19934;-72
2021/11/05 15:15:32;;;;;;;7.00;1.92;;;;;;;;;;4420659;32;20527;-73
2021/11/05 15:17:58;;;;;;;16.85;4.03;;;;;;;;;;4420712;32;20099;-74
2021/11/05 15:20:38;;;;;;;;;;;;;;;;;;4421027;32;20034;-73
2021/11/05 15:23:06;;;;;;;11.05;2.78;;;;;;;;;;4419978;32;19974;-73
2021/11/05 15:25:39;;;;;;;16.98;2.75;;;;;;;;;;4420702;32;20055;-73
2021/11/05 15:28:33;;;;;;;6.37;1.55;;;;;;;;;;4420148;32;20387;-74
2021/11/05 15:30:58;;;;;;;8.55;1.45;;;;;;;;;;4399685;32;20084;-73
2021/11/05 15:33:48;;;;;;;;;;;;;;;;;;4407185;32;20037;-73
2021/11/05 15:36:10;;;;;;;5.87;1.77;;;;;;;;;;4419095;32;19951;-73
2021/11/05 15:38:42;;;;;;;4.75;1.50;;;;;;;;;;4420265;32;20045;-74
2021/11/05 15:41:10;;;;;;;20.12;3.25;;;;;;;;;;4420176;32;20108;-73
2021/11/05 15:43:35;;;;;;;11.95;1.90;;;;;;;;;;4417023;32;20060;-72
2021/11/05 15:46:14;;;;;;;;;;;;;;;;;;;;;
2021/11/05 15:48:40;;;;;;;13.85;1.80;;;;;;;;;;4405167;32;20299;-74
2021/11/05 15:51:05;;;;;;;;;;;;;;;;;;4412636;32;20026;-72
2021/11/05 15:53:34;;;;;;;9.35;2.12;;;;;;;;;;4420838;32;19969;-71
2021/11/05 15:56:00;;;;;;;8.35;2.05;;;;;;;;;;4419189;32;20397;-73
2021/11/05 15:58:25;;;;;;;;;;;;;;;;;;4420508;32;20068;-73
2021/11/05 16:00:51;;;;;;;9.07;2.05;;;;;;;;;;4403105;32;19979;-73
2021/11/05 16:03:16;;;;;;;;;;;;;;;;;;4405704;32;20035;-74
2021/11/05 16:05:42;;;;;;;17.60;4.20;;;;;;;;;;4407223;32;19984;-74
2021/11/05 16:08:16;;;;;;;;;;;;;;;;;;4396649;32;20034;-73
2021/11/05 16:10:41;;;;;;;11.23;2.30;;;;;;;;;;4419242;32;19945;-74
2021/11/05 16:13:07;;;;;;;;;;;;;;;;;;4412433;32;20153;-74
2021/11/05 16:15:42;;;;;;;13.48;2.40;;;;;;;;;;4391803;32;19934;-73
2021/11/05 16:18:11;;;;;;;5.65;1.80;;;;;;;;;;4390998;32;20070;-73
2021/11/05 16:20:45;;;;;;;11.63;2.00;;;;;;;;;;4391234;32;20073;-73
2021/11/05 16:23:34;;;;;;;12.35;2.60;;;;;;;;;;4404774;32;20061;-73
2021/11/05 16:26:11;;;;;;;6.28;2.00;;;;;;;;;;4405201;32;20438;-74
2021/11/05 16:28:37;;;;;;;13.62;2.67;;;;;;;;;;4397275;32;20044;-73
2021/11/05 16:31:02;;;;;;;;;;;;;;;;;;4407053;32;20491;-73
2021/11/05 16:33:28;;;;;;;12.73;2.45;;;;;;;;;;4420016;32;19937;-73
2021/11/05 16:35:53;;;;;;;;;;;;;;;;;;4422990;32;20026;-73
2021/11/05 16:38:18;;;;;;;12.27;2.67;;;;;;;;;;4417524;32;20290;-73
2021/11/05 16:40:44;;;;;;;;;;;;;;;;;;4409303;32;20156;-71
2021/11/05 16:43:09;;;;;;;5.72;2.42;;;;;;;;;;4410968;32;19945;-73
2021/11/05 16:45:34;;;;;;;;;;;;;;;;;;4407734;32;20030;-73
2021/11/05 16:48:00;;;;;;;8.07;2.08;;;;;;;;;;4407556;32;20266;-73
2021/11/05 16:50:25;;;;;;;;;;;;;;;;;;4394695;32;20026;-72
2021/11/05 16:52:50;;;;;;;13.50;2.72;;;;;;;;;;4411918;32;19996;-73
2021/11/05 16:55:15;;;;;;;;;;;;;;;;;;4423347;32;20154;-73
2021/11/05 16:57:41;;;;;;;13.15;2.33;;;;;;;;;;4408323;32;19933;-73
2021/11/05 17:00:06;;;;;;;;;;;;;;;;;;4423735;32;20117;-73
2021/11/05 17:02:34;;;;;;;11.55;2.50;;;;;;;;;;4422417;32;20303;-73
2021/11/05 17:04:59;;;;;;;8.25;2.12;;;;;;;;;;4422541;32;20082;-72
2021/11/05 17:07:24;;;;;;;;;;;;;;;;;;4423498;32;20416;-73
2021/11/05 17:09:50;;;;;;;16.73;2.72;;;;;;;;;;4421408;32;19955;-74
2021/11/05 17:12:15;;;;;;;;;;;;;;;;;;4409029;32;20415;-74
2021/11/05 17:14:40;;;;;;;11.23;2.50;;;;;;;;;;4409044;32;19947;-72
2021/11/05 17:17:05;;;;;;;;;;;;;;;;;;4423064;32;20436;-73
2021/11/05 17:19:31;;;;;;;7.72;2.03;;;;;;;;;;4422673;32;20278;-73
2021/11/05 17:21:56;;;;;;;;;;;;;;;;;;4409173;32;20074;-73
2021/11/05 17:24:45;;;;;;;11.65;3.20;;;;;;;;;;4412547;32;19944;-73
2021/11/05 17:27:40;;;;;;;15.63;3.17;;;;;;;;;;4407044;32;20021;-74
2021/11/05 17:30:07;;;;;;;10.43;3.95;;;;;;;;;;4396638;32;20030;-73
2021/11/05 17:32:33;;;;;;;7.57;2.80;;;;;;;;;;4407026;32;20027;-73
2021/11/05 17:35:02;;;;;;;;;;;;;;;;;;4407416;32;20107;-74
2021/11/05 17:37:28;;;;;;;7.90;2.90;;;;;;;;;;4407146;32;19965;-73
2021/11/05 17:39:53;;;;;;;;;;;;;;;;;;4408369;32;20111;-73
2021/11/05 17:42:20;;;;;;;12.75;3.35;;;;;;;;;;4407259;32;19965;-73
2021/11/05 17:44:45;;;;;;;9.93;3.47;;;;;;;;;;4394105;32;20478;-73
2021/11/05 17:47:10;;;;;;;;;;;;;;;;;;4407061;32;20083;-75
2021/11/05 17:49:36;;;;;;;18.48;3.85;;;;;;;;;;4407099;32;19933;-73
2021/11/05 17:52:01;;;;;;;;;;;;;;;;;;4393312;32;20317;-73
2021/11/05 17:54:26;;;;;;;13.00;4.30;;;;;;;;;;4421642;32;19937;-73
2021/11/05 17:56:51;;;;;;;;;;;;;;;;;;4422640;32;20173;-72
2021/11/05 17:59:17;;;;;;;14.00;3.90;;;;;;;;;;4422028;32;20025;-74
2021/11/05 18:01:45;;;;;;;15.88;5.82;;;;;;;;;;4420939;32;20031;-73
2021/11/05 18:04:13;;;;;;;15.43;5.37;;;;;;;;;;4421990;32;20034;-73
2021/11/05 18:06:39;;;;;;;13.93;3.42;;;;;;;;;;4421864;32;20025;-73
2021/11/05 18:09:14;;;;;;;15.30;5.62;;;;;;;;;;4421325;32;20037;-73
2021/11/05 18:11:42;;;;;;;11.55;2.83;;;;;;;;;;4408518;32;20070;-73
2021/11/05 18:14:08;;;;;;;7.30;2.05;;;;;;;;;;4421365;32;20131;-74
2021/11/05 18:16:33;;;;;;;;;;;;;;;;;;4422292;32;20030;-74
2021/11/05 18:18:59;;;;;;;7.70;2.67;;;;;;;;;;4421448;32;19956;-75
2021/11/05 18:21:26;;;;;;;;;;;;;;;;;;4421120;32;20054;-72